Terminal Aerodrome Forecast
Issued by NWS

Home | Current Version | Previous Version | Text Only | Print | Product List | Glossary On
Versions: 1 2 3 4 5 6 7 8 9 10 11 12 13
000
FTUS44 KTSA 102300
TAFXNA
TAF
KXNA 102326Z 1100/1124 15006KT P6SM BKN100
     FM110300 16004KT 4SM BR BKN150
     FM111000 00000KT 1SM BR SCT003
     FM111300 VRB02KT 4SM BR SCT250
     FM111500 16006KT P6SM SCT250
     FM111900 19009KT P6SM SCT040=

USA.gov is the U.S. government's official web portal to all federal, state and local government web resources and services.